sensor_id;sensor_type;location;lat;lon;timestamp;temperature;humidity
20479;DHT22;10398;52.490;13.434;2022-12-07T00:01:29;5.30;99.90
20479;DHT22;10398;52.490;13.434;2022-12-07T00:03:57;5.30;99.90
20479;DHT22;10398;52.490;13.434;2022-12-07T00:06:26;5.20;99.90
20479;DHT22;10398;52.490;13.434;2022-12-07T00:08:52;5.20;99.90
20479;DHT22;10398;52.490;13.434;2022-12-07T00:11:20;5.20;99.90
20479;DHT22;10398;52.490;13.434;2022-12-07T00:13:46;5.20;99.90
20479;DHT22;10398;52.490;13.434;2022-12-07T00:16:18;5.20;99.90
20479;DHT22;10398;52.490;13.434;2022-12-07T00:18:44;5.20;99.90
20479;DHT22;10398;52.490;13.434;2022-12-07T00:21:32;5.10;99.90
20479;DHT22;10398;52.490;13.434;2022-12-07T00:23:57;4.90;99.90
20479;DHT22;10398;52.490;13.434;2022-12-07T00:26:31;4.90;99.90
20479;DHT22;10398;52.490;13.434;2022-12-07T00:28:59;4.90;99.90
20479;DHT22;10398;52.490;13.434;2022-12-07T00:31:31;4.90;99.90
20479;DHT22;10398;52.490;13.434;2022-12-07T00:33:58;4.80;99.90
20479;DHT22;10398;52.490;13.434;2022-12-07T00:36:25;4.90;99.90
20479;DHT22;10398;52.490;13.434;2022-12-07T00:38:51;4.90;99.90
20479;DHT22;10398;52.490;13.434;2022-12-07T00:41:21;4.90;99.90
20479;DHT22;10398;52.490;13.434;2022-12-07T00:43:48;4.90;99.90
20479;DHT22;10398;52.490;13.434;2022-12-07T00:46:15;4.90;99.90
20479;DHT22;10398;52.490;13.434;2022-12-07T00:48:42;4.90;99.90
20479;DHT22;10398;52.490;13.434;2022-12-07T00:51:09;4.90;99.90
20479;DHT22;10398;52.490;13.434;2022-12-07T00:53:35;4.70;99.90
20479;DHT22;10398;52.490;13.434;2022-12-07T00:58:39;4.70;99.90
20479;DHT22;10398;52.490;13.434;2022-12-07T01:01:07;4.70;99.90
20479;DHT22;10398;52.490;13.434;2022-12-07T01:03:32;4.70;99.90
20479;DHT22;10398;52.490;13.434;2022-12-07T01:05:58;4.70;99.90
20479;DHT22;10398;52.490;13.434;2022-12-07T01:08:25;4.70;99.90
20479;DHT22;10398;52.490;13.434;2022-12-07T01:11:04;4.70;99.90
20479;DHT22;10398;52.490;13.434;2022-12-07T01:13:31;4.70;99.90
20479;DHT22;10398;52.490;13.434;2022-12-07T01:16:02;4.80;99.90
20479;DHT22;10398;52.490;13.434;2022-12-07T01:18:29;4.80;99.90
20479;DHT22;10398;52.490;13.434;2022-12-07T01:21:16;4.80;99.90
20479;DHT22;10398;52.490;13.434;2022-12-07T01:23:42;4.80;99.90
20479;DHT22;10398;52.490;13.434;2022-12-07T01:26:11;4.80;99.90
20479;DHT22;10398;52.490;13.434;2022-12-07T01:28:38;4.80;99.90
20479;DHT22;10398;52.490;13.434;2022-12-07T01:31:08;4.90;99.90
20479;DHT22;10398;52.490;13.434;2022-12-07T01:33:38;4.80;99.90
20479;DHT22;10398;52.490;13.434;2022-12-07T01:36:19;4.90;99.90
20479;DHT22;10398;52.490;13.434;2022-12-07T01:38:46;4.80;99.90
20479;DHT22;10398;52.490;13.434;2022-12-07T01:41:13;4.90;99.90
20479;DHT22;10398;52.490;13.434;2022-12-07T01:46:39;4.80;99.90
20479;DHT22;10398;52.490;13.434;2022-12-07T01:49:07;4.80;99.90
20479;DHT22;10398;52.490;13.434;2022-12-07T01:51:34;4.80;99.90
20479;DHT22;10398;52.490;13.434;2022-12-07T01:54:02;4.80;99.90
20479;DHT22;10398;52.490;13.434;2022-12-07T01:56:31;4.80;99.90
20479;DHT22;10398;52.490;13.434;2022-12-07T01:59:00;4.80;99.90
20479;DHT22;10398;52.490;13.434;2022-12-07T02:01:26;4.70;99.90
20479;DHT22;10398;52.490;13.434;2022-12-07T02:03:52;4.70;99.90
20479;DHT22;10398;52.490;13.434;2022-12-07T02:06:22;4.70;99.90
20479;DHT22;10398;52.490;13.434;2022-12-07T02:08:49;4.70;99.90
20479;DHT22;10398;52.490;13.434;2022-12-07T02:11:15;4.70;99.90
20479;DHT22;10398;52.490;13.434;2022-12-07T02:13:42;4.70;99.90
20479;DHT22;10398;52.490;13.434;2022-12-07T02:24:37;4.80;99.90
20479;DHT22;10398;52.490;13.434;2022-12-07T02:32:26;4.70;99.90
20479;DHT22;10398;52.490;13.434;2022-12-07T02:35:09;4.70;99.90
20479;DHT22;10398;52.490;13.434;2022-12-07T02:37:43;4.60;99.90
20479;DHT22;10398;52.490;13.434;2022-12-07T02:40:24;4.70;99.90
20479;DHT22;10398;52.490;13.434;2022-12-07T02:42:55;4.60;99.90
20479;DHT22;10398;52.490;13.434;2022-12-07T02:45:23;4.60;99.90
20479;DHT22;10398;52.490;13.434;2022-12-07T02:47:52;4.60;99.90
20479;DHT22;10398;52.490;13.434;2022-12-07T02:50:21;4.60;99.90
20479;DHT22;10398;52.490;13.434;2022-12-07T02:52:47;4.50;99.90
20479;DHT22;10398;52.490;13.434;2022-12-07T02:55:15;4.40;99.90
20479;DHT22;10398;52.490;13.434;2022-12-07T02:57:53;4.50;99.90
20479;DHT22;10398;52.490;13.434;2022-12-07T03:00:20;4.40;99.90
20479;DHT22;10398;52.490;13.434;2022-12-07T03:05:51;4.40;99.90
20479;DHT22;10398;52.490;13.434;2022-12-07T03:08:33;4.30;99.90
20479;DHT22;10398;52.490;13.434;2022-12-07T03:11:12;4.20;99.90
20479;DHT22;10398;52.490;13.434;2022-12-07T03:14:07;4.20;99.90
20479;DHT22;10398;52.490;13.434;2022-12-07T03:16:37;4.20;99.90
20479;DHT22;10398;52.490;13.434;2022-12-07T03:19:10;4.20;99.90
20479;DHT22;10398;52.490;13.434;2022-12-07T03:21:42;4.20;99.90
20479;DHT22;10398;52.490;13.434;2022-12-07T03:24:13;4.20;99.90
20479;DHT22;10398;52.490;13.434;2022-12-07T03:26:44;4.20;99.90
20479;DHT22;10398;52.490;13.434;2022-12-07T03:29:19;4.20;99.90
20479;DHT22;10398;52.490;13.434;2022-12-07T03:31:58;4.20;99.90
20479;DHT22;10398;52.490;13.434;2022-12-07T03:34:53;4.10;99.90
20479;DHT22;10398;52.490;13.434;2022-12-07T03:37:33;4.20;99.90
20479;DHT22;10398;52.490;13.434;2022-12-07T03:42:32;4.10;99.90
20479;DHT22;10398;52.490;13.434;2022-12-07T03:44:59;4.10;99.90
20479;DHT22;10398;52.490;13.434;2022-12-07T03:47:36;4.20;99.90
20479;DHT22;10398;52.490;13.434;2022-12-07T03:52:47;4.10;99.90
20479;DHT22;10398;52.490;13.434;2022-12-07T03:55:25;4.10;99.90
20479;DHT22;10398;52.490;13.434;2022-12-07T03:57:56;4.00;99.90
20479;DHT22;10398;52.490;13.434;2022-12-07T04:00:24;4.00;99.90
20479;DHT22;10398;52.490;13.434;2022-12-07T04:02:53;4.00;99.90
20479;DHT22;10398;52.490;13.434;2022-12-07T04:05:19;4.00;99.90
20479;DHT22;10398;52.490;13.434;2022-12-07T04:07:45;4.00;99.90
20479;DHT22;10398;52.490;13.434;2022-12-07T04:10:10;4.00;99.90
20479;DHT22;10398;52.490;13.434;2022-12-07T04:12:36;3.90;99.90
20479;DHT22;10398;52.490;13.434;2022-12-07T04:15:03;4.00;99.90
20479;DHT22;10398;52.490;13.434;2022-12-07T04:17:28;4.00;99.90
20479;DHT22;10398;52.490;13.434;2022-12-07T04:19:54;3.90;99.90
20479;DHT22;10398;52.490;13.434;2022-12-07T04:22:20;3.90;99.90
20479;DHT22;10398;52.490;13.434;2022-12-07T04:24:45;4.00;99.90
20479;DHT22;10398;52.490;13.434;2022-12-07T04:27:11;3.90;99.90
20479;DHT22;10398;52.490;13.434;2022-12-07T04:29:36;3.90;99.90
20479;DHT22;10398;52.490;13.434;2022-12-07T04:32:02;3.90;99.90
20479;DHT22;10398;52.490;13.434;2022-12-07T04:34:28;3.90;99.90
20479;DHT22;10398;52.490;13.434;2022-12-07T04:36:54;3.90;99.90
20479;DHT22;10398;52.490;13.434;2022-12-07T04:39:28;3.80;99.90
20479;DHT22;10398;52.490;13.434;2022-12-07T04:41:55;3.80;99.90
20479;DHT22;10398;52.490;13.434;2022-12-07T04:44:21;3.80;99.90
20479;DHT22;10398;52.490;13.434;2022-12-07T04:46:47;3.90;99.90
20479;DHT22;10398;52.490;13.434;2022-12-07T04:49:14;3.90;99.90
20479;DHT22;10398;52.490;13.434;2022-12-07T04:51:40;3.90;99.90
20479;DHT22;10398;52.490;13.434;2022-12-07T04:54:06;3.90;99.90
20479;DHT22;10398;52.490;13.434;2022-12-07T04:56:32;3.90;99.90
20479;DHT22;10398;52.490;13.434;2022-12-07T04:58:58;3.80;99.90
20479;DHT22;10398;52.490;13.434;2022-12-07T05:01:24;3.80;99.90
20479;DHT22;10398;52.490;13.434;2022-12-07T05:03:50;3.80;99.90
20479;DHT22;10398;52.490;13.434;2022-12-07T05:06:16;3.80;99.90
20479;DHT22;10398;52.490;13.434;2022-12-07T05:08:41;3.70;99.90
20479;DHT22;10398;52.490;13.434;2022-12-07T05:11:09;3.80;99.90
20479;DHT22;10398;52.490;13.434;2022-12-07T05:13:35;3.90;99.90
20479;DHT22;10398;52.490;13.434;2022-12-07T05:16:01;3.90;99.90
20479;DHT22;10398;52.490;13.434;2022-12-07T05:18:27;3.90;99.90
20479;DHT22;10398;52.490;13.434;2022-12-07T05:20:53;3.90;99.90
20479;DHT22;10398;52.490;13.434;2022-12-07T05:23:18;3.90;99.90
20479;DHT22;10398;52.490;13.434;2022-12-07T05:25:44;4.00;99.90
20479;DHT22;10398;52.490;13.434;2022-12-07T05:28:10;4.00;99.90
20479;DHT22;10398;52.490;13.434;2022-12-07T05:30:36;4.00;99.90
20479;DHT22;10398;52.490;13.434;2022-12-07T05:33:02;4.00;99.90
20479;DHT22;10398;52.490;13.434;2022-12-07T05:35:28;4.10;99.90
20479;DHT22;10398;52.490;13.434;2022-12-07T05:37:54;4.10;99.90
20479;DHT22;10398;52.490;13.434;2022-12-07T05:40:20;4.10;99.90
20479;DHT22;10398;52.490;13.434;2022-12-07T05:42:46;4.10;99.90
20479;DHT22;10398;52.490;13.434;2022-12-07T05:45:11;4.10;99.90
20479;DHT22;10398;52.490;13.434;2022-12-07T05:47:37;4.10;99.90
20479;DHT22;10398;52.490;13.434;2022-12-07T05:50:04;4.10;99.90
20479;DHT22;10398;52.490;13.434;2022-12-07T05:52:30;4.20;99.90
20479;DHT22;10398;52.490;13.434;2022-12-07T05:54:56;4.20;99.90
20479;DHT22;10398;52.490;13.434;2022-12-07T05:57:22;4.20;99.90
20479;DHT22;10398;52.490;13.434;2022-12-07T05:59:47;4.20;99.90
20479;DHT22;10398;52.490;13.434;2022-12-07T06:02:15;4.20;99.90
20479;DHT22;10398;52.490;13.434;2022-12-07T06:04:44;4.20;99.90
20479;DHT22;10398;52.490;13.434;2022-12-07T06:07:12;4.30;99.90
20479;DHT22;10398;52.490;13.434;2022-12-07T06:09:38;4.40;99.90
20479;DHT22;10398;52.490;13.434;2022-12-07T06:12:04;4.50;99.90
20479;DHT22;10398;52.490;13.434;2022-12-07T06:14:48;4.50;99.90
20479;DHT22;10398;52.490;13.434;2022-12-07T06:17:14;4.50;99.90
20479;DHT22;10398;52.490;13.434;2022-12-07T06:19:40;4.50;99.90
20479;DHT22;10398;52.490;13.434;2022-12-07T06:22:06;4.60;99.90
20479;DHT22;10398;52.490;13.434;2022-12-07T06:24:33;4.60;99.90
20479;DHT22;10398;52.490;13.434;2022-12-07T06:26:59;4.60;99.90
20479;DHT22;10398;52.490;13.434;2022-12-07T06:29:25;4.50;99.90
20479;DHT22;10398;52.490;13.434;2022-12-07T06:31:50;4.60;99.90
20479;DHT22;10398;52.490;13.434;2022-12-07T06:34:19;4.50;99.90
20479;DHT22;10398;52.490;13.434;2022-12-07T06:36:46;4.60;99.90
20479;DHT22;10398;52.490;13.434;2022-12-07T06:39:20;4.60;99.90
20479;DHT22;10398;52.490;13.434;2022-12-07T06:41:47;4.60;99.90
20479;DHT22;10398;52.490;13.434;2022-12-07T06:44:12;4.60;99.90
20479;DHT22;10398;52.490;13.434;2022-12-07T06:46:38;4.60;99.90
20479;DHT22;10398;52.490;13.434;2022-12-07T06:49:05;4.70;99.90
20479;DHT22;10398;52.490;13.434;2022-12-07T06:51:32;4.70;99.90
20479;DHT22;10398;52.490;13.434;2022-12-07T06:53:57;4.70;99.90
20479;DHT22;10398;52.490;13.434;2022-12-07T06:56:23;4.70;99.90
20479;DHT22;10398;52.490;13.434;2022-12-07T06:58:49;4.80;99.90
20479;DHT22;10398;52.490;13.434;2022-12-07T07:01:17;4.80;99.90
20479;DHT22;10398;52.490;13.434;2022-12-07T07:03:44;4.80;99.90
20479;DHT22;10398;52.490;13.434;2022-12-07T07:06:10;4.90;99.90
20479;DHT22;10398;52.490;13.434;2022-12-07T07:08:37;4.80;99.90
20479;DHT22;10398;52.490;13.434;2022-12-07T07:11:03;4.90;99.90
20479;DHT22;10398;52.490;13.434;2022-12-07T07:13:29;4.90;99.90
20479;DHT22;10398;52.490;13.434;2022-12-07T07:15:55;4.90;99.90
20479;DHT22;10398;52.490;13.434;2022-12-07T07:18:21;5.00;99.90
20479;DHT22;10398;52.490;13.434;2022-12-07T07:20:47;5.00;99.90
20479;DHT22;10398;52.490;13.434;2022-12-07T07:23:12;5.00;99.90
20479;DHT22;10398;52.490;13.434;2022-12-07T07:25:38;5.10;99.90
20479;DHT22;10398;52.490;13.434;2022-12-07T07:28:04;5.00;99.90
20479;DHT22;10398;52.490;13.434;2022-12-07T07:30:30;5.10;99.90
20479;DHT22;10398;52.490;13.434;2022-12-07T07:33:00;5.10;99.90
20479;DHT22;10398;52.490;13.434;2022-12-07T07:35:27;5.10;99.90
20479;DHT22;10398;52.490;13.434;2022-12-07T07:37:53;5.10;99.90
20479;DHT22;10398;52.490;13.434;2022-12-07T07:40:18;5.10;99.90
20479;DHT22;10398;52.490;13.434;2022-12-07T07:42:47;5.10;99.90
20479;DHT22;10398;52.490;13.434;2022-12-07T07:45:13;5.10;99.90
20479;DHT22;10398;52.490;13.434;2022-12-07T07:47:39;5.20;99.90
20479;DHT22;10398;52.490;13.434;2022-12-07T07:50:05;5.10;99.90
20479;DHT22;10398;52.490;13.434;2022-12-07T07:52:31;5.10;99.90
20479;DHT22;10398;52.490;13.434;2022-12-07T07:55:04;5.10;99.90
20479;DHT22;10398;52.490;13.434;2022-12-07T07:57:30;5.10;99.90
20479;DHT22;10398;52.490;13.434;2022-12-07T07:59:56;5.20;99.90
20479;DHT22;10398;52.490;13.434;2022-12-07T08:02:22;5.20;99.90
20479;DHT22;10398;52.490;13.434;2022-12-07T08:04:48;5.20;99.90
20479;DHT22;10398;52.490;13.434;2022-12-07T08:07:14;5.30;99.90
20479;DHT22;10398;52.490;13.434;2022-12-07T08:09:40;5.30;99.90
20479;DHT22;10398;52.490;13.434;2022-12-07T08:12:07;5.30;99.90
20479;DHT22;10398;52.490;13.434;2022-12-07T08:14:33;5.30;99.90
20479;DHT22;10398;52.490;13.434;2022-12-07T08:16:59;5.30;99.90
20479;DHT22;10398;52.490;13.434;2022-12-07T08:19:25;5.30;99.90
20479;DHT22;10398;52.490;13.434;2022-12-07T08:21:51;5.40;99.90
20479;DHT22;10398;52.490;13.434;2022-12-07T08:24:16;5.40;99.90
20479;DHT22;10398;52.490;13.434;2022-12-07T08:26:43;5.60;99.90
20479;DHT22;10398;52.490;13.434;2022-12-07T08:29:08;5.50;99.90
20479;DHT22;10398;52.490;13.434;2022-12-07T08:31:34;5.50;99.90
20479;DHT22;10398;52.490;13.434;2022-12-07T08:34:00;5.60;99.90
20479;DHT22;10398;52.490;13.434;2022-12-07T08:36:26;5.60;99.90
20479;DHT22;10398;52.490;13.434;2022-12-07T08:38:52;5.60;99.90
20479;DHT22;10398;52.490;13.434;2022-12-07T08:41:17;5.60;99.90
20479;DHT22;10398;52.490;13.434;2022-12-07T08:43:43;5.60;99.90
20479;DHT22;10398;52.490;13.434;2022-12-07T08:48:58;5.70;99.90
20479;DHT22;10398;52.490;13.434;2022-12-07T08:51:26;5.70;99.90
20479;DHT22;10398;52.490;13.434;2022-12-07T08:53:54;5.70;99.90
20479;DHT22;10398;52.490;13.434;2022-12-07T08:56:21;5.80;99.90
20479;DHT22;10398;52.490;13.434;2022-12-07T08:58:47;5.80;99.90
20479;DHT22;10398;52.490;13.434;2022-12-07T09:01:13;5.80;99.90
20479;DHT22;10398;52.490;13.434;2022-12-07T09:03:39;5.80;99.90
20479;DHT22;10398;52.490;13.434;2022-12-07T09:06:05;5.70;99.90
20479;DHT22;10398;52.490;13.434;2022-12-07T09:08:36;5.70;99.90
20479;DHT22;10398;52.490;13.434;2022-12-07T09:11:03;5.70;99.90
20479;DHT22;10398;52.490;13.434;2022-12-07T09:13:28;5.80;99.90
20479;DHT22;10398;52.490;13.434;2022-12-07T09:15:54;5.90;99.90
20479;DHT22;10398;52.490;13.434;2022-12-07T09:18:19;5.90;99.90
20479;DHT22;10398;52.490;13.434;2022-12-07T09:20:45;6.10;99.90
20479;DHT22;10398;52.490;13.434;2022-12-07T09:23:11;6.20;99.90
20479;DHT22;10398;52.490;13.434;2022-12-07T09:25:37;6.60;99.90
20479;DHT22;10398;52.490;13.434;2022-12-07T09:28:02;6.90;99.90
20479;DHT22;10398;52.490;13.434;2022-12-07T09:30:28;7.00;99.90
20479;DHT22;10398;52.490;13.434;2022-12-07T09:32:56;6.80;99.90
20479;DHT22;10398;52.490;13.434;2022-12-07T09:35:22;6.70;99.90
20479;DHT22;10398;52.490;13.434;2022-12-07T09:37:48;6.50;99.90
20479;DHT22;10398;52.490;13.434;2022-12-07T09:40:16;6.40;99.90
20479;DHT22;10398;52.490;13.434;2022-12-07T09:42:45;6.40;99.90
20479;DHT22;10398;52.490;13.434;2022-12-07T09:45:27;6.30;99.90
20479;DHT22;10398;52.490;13.434;2022-12-07T09:47:53;6.30;99.90
20479;DHT22;10398;52.490;13.434;2022-12-07T09:50:25;6.30;99.90
20479;DHT22;10398;52.490;13.434;2022-12-07T09:52:52;6.30;99.90
20479;DHT22;10398;52.490;13.434;2022-12-07T09:55:26;6.20;99.90
20479;DHT22;10398;52.490;13.434;2022-12-07T09:57:53;6.10;99.90
20479;DHT22;10398;52.490;13.434;2022-12-07T10:00:21;5.90;99.90
20479;DHT22;10398;52.490;13.434;2022-12-07T10:02:53;5.90;99.90
20479;DHT22;10398;52.490;13.434;2022-12-07T10:05:46;5.90;99.90
20479;DHT22;10398;52.490;13.434;2022-12-07T10:08:14;5.90;99.90
20479;DHT22;10398;52.490;13.434;2022-12-07T10:10:42;5.80;99.90
20479;DHT22;10398;52.490;13.434;2022-12-07T10:13:34;5.90;99.90
20479;DHT22;10398;52.490;13.434;2022-12-07T10:16:00;5.90;99.90
20479;DHT22;10398;52.490;13.434;2022-12-07T10:18:37;5.90;99.90
20479;DHT22;10398;52.490;13.434;2022-12-07T10:21:16;5.90;99.90
20479;DHT22;10398;52.490;13.434;2022-12-07T10:26:33;5.80;99.90
20479;DHT22;10398;52.490;13.434;2022-12-07T10:29:16;5.90;99.90
20479;DHT22;10398;52.490;13.434;2022-12-07T10:31:43;5.90;99.90
20479;DHT22;10398;52.490;13.434;2022-12-07T10:34:23;5.90;99.90
20479;DHT22;10398;52.490;13.434;2022-12-07T10:36:50;5.90;99.90
20479;DHT22;10398;52.490;13.434;2022-12-07T10:39:23;5.80;99.90
20479;DHT22;10398;52.490;13.434;2022-12-07T10:42:01;6.00;99.90
20479;DHT22;10398;52.490;13.434;2022-12-07T10:44:34;6.10;99.90
20479;DHT22;10398;52.490;13.434;2022-12-07T11:00:19;6.40;99.90
20479;DHT22;10398;52.490;13.434;2022-12-07T11:05:54;6.30;99.90
20479;DHT22;10398;52.490;13.434;2022-12-07T11:11:02;6.30;99.90
20479;DHT22;10398;52.490;13.434;2022-12-07T11:22:10;6.20;99.90
20479;DHT22;10398;52.490;13.434;2022-12-07T11:30:54;6.00;99.90
20479;DHT22;10398;52.490;13.434;2022-12-07T11:33:21;6.00;99.90
20479;DHT22;10398;52.490;13.434;2022-12-07T11:41:05;5.90;99.90
20479;DHT22;10398;52.490;13.434;2022-12-07T11:46:18;6.00;99.90
20479;DHT22;10398;52.490;13.434;2022-12-07T11:48:46;6.10;99.90
20479;DHT22;10398;52.490;13.434;2022-12-07T11:51:16;6.10;99.90
20479;DHT22;10398;52.490;13.434;2022-12-07T11:56:17;6.10;99.90
20479;DHT22;10398;52.490;13.434;2022-12-07T12:01:22;5.90;99.90
20479;DHT22;10398;52.490;13.434;2022-12-07T12:06:22;5.90;99.90
20479;DHT22;10398;52.490;13.434;2022-12-07T12:09:20;5.90;99.90
20479;DHT22;10398;52.490;13.434;2022-12-07T12:20:31;6.10;99.90
20479;DHT22;10398;52.490;13.434;2022-12-07T12:23:39;6.00;99.90
20479;DHT22;10398;52.490;13.434;2022-12-07T12:26:08;6.00;99.90
20479;DHT22;10398;52.490;13.434;2022-12-07T12:28:58;6.00;99.90
20479;DHT22;10398;52.490;13.434;2022-12-07T12:33:57;6.10;99.90
20479;DHT22;10398;52.490;13.434;2022-12-07T12:36:46;6.10;99.90
20479;DHT22;10398;52.490;13.434;2022-12-07T12:39:17;6.10;99.90
20479;DHT22;10398;52.490;13.434;2022-12-07T12:46:57;6.10;99.90
20479;DHT22;10398;52.490;13.434;2022-12-07T12:54:37;6.10;99.90
20479;DHT22;10398;52.490;13.434;2022-12-07T12:57:15;6.10;99.90
20479;DHT22;10398;52.490;13.434;2022-12-07T13:05:02;6.10;99.90
20479;DHT22;10398;52.490;13.434;2022-12-07T13:15:45;6.20;99.90
20479;DHT22;10398;52.490;13.434;2022-12-07T13:26:12;6.10;99.90
20479;DHT22;10398;52.490;13.434;2022-12-07T13:28:51;6.10;99.90
20479;DHT22;10398;52.490;13.434;2022-12-07T13:31:35;6.20;99.90
20479;DHT22;10398;52.490;13.434;2022-12-07T13:34:03;6.20;99.90
20479;DHT22;10398;52.490;13.434;2022-12-07T13:36:39;6.30;99.90
20479;DHT22;10398;52.490;13.434;2022-12-07T13:41:42;6.10;99.90
20479;DHT22;10398;52.490;13.434;2022-12-07T13:44:13;6.10;99.90
20479;DHT22;10398;52.490;13.434;2022-12-07T13:49:25;6.10;99.90
20479;DHT22;10398;52.490;13.434;2022-12-07T13:51:52;6.10;99.90
20479;DHT22;10398;52.490;13.434;2022-12-07T13:54:18;6.10;99.90
20479;DHT22;10398;52.490;13.434;2022-12-07T13:56:48;6.20;99.90
20479;DHT22;10398;52.490;13.434;2022-12-07T13:59:18;6.10;99.90
20479;DHT22;10398;52.490;13.434;2022-12-07T14:01:46;6.10;99.90
20479;DHT22;10398;52.490;13.434;2022-12-07T14:04:33;6.00;99.90
20479;DHT22;10398;52.490;13.434;2022-12-07T14:06:59;6.10;99.90
20479;DHT22;10398;52.490;13.434;2022-12-07T14:09:27;6.00;99.90
20479;DHT22;10398;52.490;13.434;2022-12-07T14:11:55;6.00;99.90
20479;DHT22;10398;52.490;13.434;2022-12-07T14:14:27;6.00;99.90
20479;DHT22;10398;52.490;13.434;2022-12-07T14:17:17;6.00;99.90
20479;DHT22;10398;52.490;13.434;2022-12-07T14:19:49;6.00;99.90
20479;DHT22;10398;52.490;13.434;2022-12-07T14:22:28;6.00;99.90
20479;DHT22;10398;52.490;13.434;2022-12-07T14:27:39;6.00;99.90
20479;DHT22;10398;52.490;13.434;2022-12-07T14:30:05;6.00;99.90
20479;DHT22;10398;52.490;13.434;2022-12-07T14:32:32;5.90;99.90
20479;DHT22;10398;52.490;13.434;2022-12-07T14:35:10;5.90;99.90
20479;DHT22;10398;52.490;13.434;2022-12-07T14:37:37;5.90;99.90
20479;DHT22;10398;52.490;13.434;2022-12-07T14:40:03;5.90;99.90
20479;DHT22;10398;52.490;13.434;2022-12-07T14:42:30;5.90;99.90
20479;DHT22;10398;52.490;13.434;2022-12-07T14:44:57;5.80;99.90
20479;DHT22;10398;52.490;13.434;2022-12-07T14:47:24;5.80;99.90
20479;DHT22;10398;52.490;13.434;2022-12-07T14:49:50;5.80;99.90
20479;DHT22;10398;52.490;13.434;2022-12-07T14:52:21;5.80;99.90
20479;DHT22;10398;52.490;13.434;2022-12-07T14:54:48;5.70;99.90
20479;DHT22;10398;52.490;13.434;2022-12-07T14:57:14;5.80;99.90
20479;DHT22;10398;52.490;13.434;2022-12-07T14:59:40;5.70;99.90
20479;DHT22;10398;52.490;13.434;2022-12-07T15:02:06;5.70;99.90
20479;DHT22;10398;52.490;13.434;2022-12-07T15:04:34;5.70;99.90
20479;DHT22;10398;52.490;13.434;2022-12-07T15:07:04;5.70;99.90
20479;DHT22;10398;52.490;13.434;2022-12-07T15:09:31;5.70;99.90
20479;DHT22;10398;52.490;13.434;2022-12-07T15:11:57;5.70;99.90
20479;DHT22;10398;52.490;13.434;2022-12-07T15:14:22;5.60;99.90
20479;DHT22;10398;52.490;13.434;2022-12-07T15:16:48;5.60;99.90
20479;DHT22;10398;52.490;13.434;2022-12-07T15:19:18;5.70;99.90
20479;DHT22;10398;52.490;13.434;2022-12-07T15:21:45;5.70;99.90
20479;DHT22;10398;52.490;13.434;2022-12-07T15:24:12;5.60;99.90
20479;DHT22;10398;52.490;13.434;2022-12-07T15:26:38;5.50;99.90
20479;DHT22;10398;52.490;13.434;2022-12-07T15:29:04;5.40;99.90
20479;DHT22;10398;52.490;13.434;2022-12-07T15:31:30;5.30;99.90
20479;DHT22;10398;52.490;13.434;2022-12-07T15:33:55;5.30;99.90
20479;DHT22;10398;52.490;13.434;2022-12-07T15:36:24;5.30;99.90
20479;DHT22;10398;52.490;13.434;2022-12-07T15:38:50;5.30;99.90
20479;DHT22;10398;52.490;13.434;2022-12-07T15:41:16;5.40;99.90
20479;DHT22;10398;52.490;13.434;2022-12-07T15:43:42;5.30;99.90
20479;DHT22;10398;52.490;13.434;2022-12-07T15:46:31;5.40;99.90
20479;DHT22;10398;52.490;13.434;2022-12-07T15:48:57;5.50;99.90
20479;DHT22;10398;52.490;13.434;2022-12-07T15:51:22;5.60;99.90
20479;DHT22;10398;52.490;13.434;2022-12-07T15:53:48;5.50;99.90
20479;DHT22;10398;52.490;13.434;2022-12-07T15:56:13;5.60;99.90
20479;DHT22;10398;52.490;13.434;2022-12-07T15:58:39;5.60;99.90
20479;DHT22;10398;52.490;13.434;2022-12-07T16:01:15;5.70;99.90
20479;DHT22;10398;52.490;13.434;2022-12-07T16:03:41;5.60;99.90
20479;DHT22;10398;52.490;13.434;2022-12-07T16:06:07;5.60;99.90
20479;DHT22;10398;52.490;13.434;2022-12-07T16:08:33;5.50;99.90
20479;DHT22;10398;52.490;13.434;2022-12-07T16:10:59;5.50;99.90
20479;DHT22;10398;52.490;13.434;2022-12-07T16:13:25;5.40;99.90
20479;DHT22;10398;52.490;13.434;2022-12-07T16:15:50;5.40;99.90
20479;DHT22;10398;52.490;13.434;2022-12-07T16:18:16;5.40;99.90
20479;DHT22;10398;52.490;13.434;2022-12-07T16:20:41;5.30;99.90
20479;DHT22;10398;52.490;13.434;2022-12-07T16:23:07;5.30;99.90
20479;DHT22;10398;52.490;13.434;2022-12-07T16:25:33;5.30;99.90
20479;DHT22;10398;52.490;13.434;2022-12-07T16:27:59;5.30;99.90
20479;DHT22;10398;52.490;13.434;2022-12-07T16:30:24;5.20;99.90
20479;DHT22;10398;52.490;13.434;2022-12-07T16:32:51;5.20;99.90
20479;DHT22;10398;52.490;13.434;2022-12-07T16:35:16;5.10;99.90
20479;DHT22;10398;52.490;13.434;2022-12-07T16:37:42;5.10;99.90
20479;DHT22;10398;52.490;13.434;2022-12-07T16:40:09;5.10;99.90
20479;DHT22;10398;52.490;13.434;2022-12-07T16:42:35;5.10;99.90
20479;DHT22;10398;52.490;13.434;2022-12-07T16:45:03;5.10;99.90
20479;DHT22;10398;52.490;13.434;2022-12-07T16:47:29;5.20;99.90
20479;DHT22;10398;52.490;13.434;2022-12-07T16:49:55;5.10;99.90
20479;DHT22;10398;52.490;13.434;2022-12-07T16:52:21;5.10;99.90
20479;DHT22;10398;52.490;13.434;2022-12-07T16:54:48;5.10;99.90
20479;DHT22;10398;52.490;13.434;2022-12-07T16:57:14;5.20;99.90
20479;DHT22;10398;52.490;13.434;2022-12-07T16:59:40;5.20;99.90
20479;DHT22;10398;52.490;13.434;2022-12-07T17:02:05;5.20;99.90
20479;DHT22;10398;52.490;13.434;2022-12-07T17:04:33;5.20;99.90
20479;DHT22;10398;52.490;13.434;2022-12-07T17:06:59;5.20;99.90
20479;DHT22;10398;52.490;13.434;2022-12-07T17:09:24;5.20;99.90
20479;DHT22;10398;52.490;13.434;2022-12-07T17:11:50;5.20;99.90
20479;DHT22;10398;52.490;13.434;2022-12-07T17:14:16;5.10;99.90
20479;DHT22;10398;52.490;13.434;2022-12-07T17:17:01;5.10;99.90
20479;DHT22;10398;52.490;13.434;2022-12-07T17:19:26;5.10;99.90
20479;DHT22;10398;52.490;13.434;2022-12-07T17:21:52;5.10;99.90
20479;DHT22;10398;52.490;13.434;2022-12-07T17:24:18;5.10;99.90
20479;DHT22;10398;52.490;13.434;2022-12-07T17:26:44;5.10;99.90
20479;DHT22;10398;52.490;13.434;2022-12-07T17:29:12;5.10;99.90
20479;DHT22;10398;52.490;13.434;2022-12-07T17:31:39;5.10;99.90
20479;DHT22;10398;52.490;13.434;2022-12-07T17:34:12;5.10;99.90
20479;DHT22;10398;52.490;13.434;2022-12-07T17:36:38;5.10;99.90
20479;DHT22;10398;52.490;13.434;2022-12-07T17:39:08;5.10;99.90
20479;DHT22;10398;52.490;13.434;2022-12-07T17:41:34;5.10;99.90
20479;DHT22;10398;52.490;13.434;2022-12-07T17:44:19;5.00;99.90
20479;DHT22;10398;52.490;13.434;2022-12-07T17:46:48;5.10;99.90
20479;DHT22;10398;52.490;13.434;2022-12-07T17:49:14;5.00;99.90
20479;DHT22;10398;52.490;13.434;2022-12-07T17:51:40;4.90;99.90
20479;DHT22;10398;52.490;13.434;2022-12-07T17:54:24;4.90;99.90